EGLF METAR and TAF | Updated Today

EGLF METAR

Farnborough Airport

Observation time: 33 min. ago

EGLF 251950Z AUTO 25011KT 9999 NCD 15/09 Q1016

Need help? Read our tutorial on how to read METARs or read the parsed version below.

Farnborough Airport (EGLF) METAR

  • Weather conditions on Wed, 25 May 2022 19:50:00 +0000 (33 min. ago):
  • Present conditions: Dry
  • Clouds: Nil cloud detected
  • Visibility: Greater than 10 km
  • Wind: 250 degrees at 11 knots
  • Temperature: 15 celsius
  • Dew point: 9 celsius
  • Pressure: 1016 millibars
  • Remarks: None


Useful to know...